sensor_id;sensor_type;location;lat;lon;timestamp;P1;durP1;ratioP1;P2;durP2;ratioP2
55435;SDS011;41307;53.142;6.430;2022-11-11T00:01:58;11.48;;;5.57;;
55435;SDS011;41307;53.142;6.430;2022-11-11T00:04:24;11.95;;;6.95;;
55435;SDS011;41307;53.142;6.430;2022-11-11T00:06:53;10.32;;;5.35;;
55435;SDS011;41307;53.142;6.430;2022-11-11T00:09:24;15.82;;;5.07;;
55435;SDS011;41307;53.142;6.430;2022-11-11T00:12:02;13.93;;;7.53;;
55435;SDS011;41307;53.142;6.430;2022-11-11T00:14:36;8.77;;;4.90;;
55435;SDS011;41307;53.142;6.430;2022-11-11T00:17:05;12.23;;;7.07;;
55435;SDS011;41307;53.142;6.430;2022-11-11T00:19:49;11.75;;;5.72;;
55435;SDS011;41307;53.142;6.430;2022-11-11T00:22:35;11.65;;;5.78;;
55435;SDS011;41307;53.142;6.430;2022-11-11T00:25:20;11.20;;;5.50;;
55435;SDS011;41307;53.142;6.430;2022-11-11T00:27:56;12.10;;;6.90;;
55435;SDS011;41307;53.142;6.430;2022-11-11T00:30:28;11.52;;;5.40;;
55435;SDS011;41307;53.142;6.430;2022-11-11T00:32:56;11.90;;;7.25;;
55435;SDS011;41307;53.142;6.430;2022-11-11T00:35:22;12.55;;;7.80;;
55435;SDS011;41307;53.142;6.430;2022-11-11T00:38:07;14.25;;;8.13;;
55435;SDS011;41307;53.142;6.430;2022-11-11T00:40:38;12.25;;;5.88;;
55435;SDS011;41307;53.142;6.430;2022-11-11T00:43:06;14.50;;;8.20;;
55435;SDS011;41307;53.142;6.430;2022-11-11T00:45:39;12.13;;;8.00;;
55435;SDS011;41307;53.142;6.430;2022-11-11T00:48:08;9.43;;;5.38;;
55435;SDS011;41307;53.142;6.430;2022-11-11T00:50:55;12.32;;;6.55;;
55435;SDS011;41307;53.142;6.430;2022-11-11T00:53:37;15.25;;;8.13;;
55435;SDS011;41307;53.142;6.430;2022-11-11T00:56:10;9.82;;;5.20;;
55435;SDS011;41307;53.142;6.430;2022-11-11T00:58:46;10.57;;;5.63;;
55435;SDS011;41307;53.142;6.430;2022-11-11T01:01:14;10.48;;;5.90;;
55435;SDS011;41307;53.142;6.430;2022-11-11T01:03:49;13.43;;;6.18;;
55435;SDS011;41307;53.142;6.430;2022-11-11T01:06:17;12.32;;;6.82;;
55435;SDS011;41307;53.142;6.430;2022-11-11T01:08:43;12.85;;;5.40;;
55435;SDS011;41307;53.142;6.430;2022-11-11T01:11:15;11.98;;;5.82;;
55435;SDS011;41307;53.142;6.430;2022-11-11T01:13:45;12.00;;;8.40;;
55435;SDS011;41307;53.142;6.430;2022-11-11T01:16:16;12.00;;;6.50;;
55435;SDS011;41307;53.142;6.430;2022-11-11T01:18:49;11.30;;;6.25;;
55435;SDS011;41307;53.142;6.430;2022-11-11T01:21:19;11.57;;;5.57;;
55435;SDS011;41307;53.142;6.430;2022-11-11T01:23:59;11.07;;;8.27;;
55435;SDS011;41307;53.142;6.430;2022-11-11T01:26:26;12.48;;;8.38;;
55435;SDS011;41307;53.142;6.430;2022-11-11T01:29:00;16.73;;;8.80;;
55435;SDS011;41307;53.142;6.430;2022-11-11T01:31:38;11.82;;;6.60;;
55435;SDS011;41307;53.142;6.430;2022-11-11T01:34:12;8.68;;;5.80;;
55435;SDS011;41307;53.142;6.430;2022-11-11T01:36:41;13.52;;;5.93;;
55435;SDS011;41307;53.142;6.430;2022-11-11T01:39:14;16.45;;;8.18;;
55435;SDS011;41307;53.142;6.430;2022-11-11T01:41:42;13.10;;;6.05;;
55435;SDS011;41307;53.142;6.430;2022-11-11T01:51:46;14.57;;;8.97;;
55435;SDS011;41307;53.142;6.430;2022-11-11T01:56:58;15.02;;;8.55;;
55435;SDS011;41307;53.142;6.430;2022-11-11T01:59:29;11.25;;;6.25;;
55435;SDS011;41307;53.142;6.430;2022-11-11T02:01:59;18.17;;;8.93;;
55435;SDS011;41307;53.142;6.430;2022-11-11T02:04:41;14.63;;;8.77;;
55435;SDS011;41307;53.142;6.430;2022-11-11T02:09:55;13.32;;;8.15;;
55435;SDS011;41307;53.142;6.430;2022-11-11T02:12:22;13.38;;;8.25;;
55435;SDS011;41307;53.142;6.430;2022-11-11T02:15:09;12.25;;;6.47;;
55435;SDS011;41307;53.142;6.430;2022-11-11T02:17:58;12.30;;;6.00;;
55435;SDS011;41307;53.142;6.430;2022-11-11T02:20:31;15.95;;;6.18;;
55435;SDS011;41307;53.142;6.430;2022-11-11T02:23:06;16.42;;;8.40;;
55435;SDS011;41307;53.142;6.430;2022-11-11T02:25:33;13.20;;;6.60;;
55435;SDS011;41307;53.142;6.430;2022-11-11T02:28:04;9.90;;;6.15;;
55435;SDS011;41307;53.142;6.430;2022-11-11T02:30:33;14.65;;;8.88;;
55435;SDS011;41307;53.142;6.430;2022-11-11T02:32:59;11.82;;;6.15;;
55435;SDS011;41307;53.142;6.430;2022-11-11T02:38:02;12.80;;;9.23;;
55435;SDS011;41307;53.142;6.430;2022-11-11T02:40:43;12.88;;;6.93;;
55435;SDS011;41307;53.142;6.430;2022-11-11T02:43:35;16.00;;;10.57;;
55435;SDS011;41307;53.142;6.430;2022-11-11T02:46:08;20.23;;;8.68;;
55435;SDS011;41307;53.142;6.430;2022-11-11T02:48:42;21.23;;;10.77;;
55435;SDS011;41307;53.142;6.430;2022-11-11T02:51:17;15.82;;;11.18;;
55435;SDS011;41307;53.142;6.430;2022-11-11T02:53:44;16.13;;;9.68;;
55435;SDS011;41307;53.142;6.430;2022-11-11T02:56:15;20.63;;;9.27;;
55435;SDS011;41307;53.142;6.430;2022-11-11T02:59:01;18.77;;;9.70;;
55435;SDS011;41307;53.142;6.430;2022-11-11T03:01:33;14.70;;;8.68;;
55435;SDS011;41307;53.142;6.430;2022-11-11T03:04:19;15.30;;;9.27;;
55435;SDS011;41307;53.142;6.430;2022-11-11T03:06:50;16.88;;;9.60;;
55435;SDS011;41307;53.142;6.430;2022-11-11T03:09:23;16.15;;;9.27;;
55435;SDS011;41307;53.142;6.430;2022-11-11T03:11:49;21.20;;;11.20;;
55435;SDS011;41307;53.142;6.430;2022-11-11T03:14:15;15.27;;;9.70;;
55435;SDS011;41307;53.142;6.430;2022-11-11T03:16:41;16.63;;;10.60;;
55435;SDS011;41307;53.142;6.430;2022-11-11T03:19:25;15.18;;;9.85;;
55435;SDS011;41307;53.142;6.430;2022-11-11T03:21:54;20.30;;;14.93;;
55435;SDS011;41307;53.142;6.430;2022-11-11T03:24:20;22.55;;;14.75;;
55435;SDS011;41307;53.142;6.430;2022-11-11T03:26:49;19.98;;;10.57;;
55435;SDS011;41307;53.142;6.430;2022-11-11T03:29:14;23.13;;;11.25;;
55435;SDS011;41307;53.142;6.430;2022-11-11T03:31:43;16.40;;;10.30;;
55435;SDS011;41307;53.142;6.430;2022-11-11T03:34:12;20.33;;;10.80;;
55435;SDS011;41307;53.142;6.430;2022-11-11T03:36:43;20.67;;;16.02;;
55435;SDS011;41307;53.142;6.430;2022-11-11T03:39:31;19.73;;;15.27;;
55435;SDS011;41307;53.142;6.430;2022-11-11T03:42:04;18.40;;;11.77;;
55435;SDS011;41307;53.142;6.430;2022-11-11T03:44:33;19.95;;;11.52;;
55435;SDS011;41307;53.142;6.430;2022-11-11T03:46:59;21.10;;;16.40;;
55435;SDS011;41307;53.142;6.430;2022-11-11T03:49:24;22.15;;;17.05;;
55435;SDS011;41307;53.142;6.430;2022-11-11T03:52:03;19.33;;;11.02;;
55435;SDS011;41307;53.142;6.430;2022-11-11T03:54:31;23.27;;;11.90;;
55435;SDS011;41307;53.142;6.430;2022-11-11T03:56:57;24.10;;;17.27;;
55435;SDS011;41307;53.142;6.430;2022-11-11T03:59:42;21.73;;;16.95;;
55435;SDS011;41307;53.142;6.430;2022-11-11T04:02:14;22.15;;;17.08;;
55435;SDS011;41307;53.142;6.430;2022-11-11T04:05:03;18.58;;;12.30;;
55435;SDS011;41307;53.142;6.430;2022-11-11T04:07:49;19.90;;;11.88;;
55435;SDS011;41307;53.142;6.430;2022-11-11T04:10:36;24.33;;;12.45;;
55435;SDS011;41307;53.142;6.430;2022-11-11T04:13:04;20.33;;;12.20;;
55435;SDS011;41307;53.142;6.430;2022-11-11T04:15:49;21.05;;;12.43;;
55435;SDS011;41307;53.142;6.430;2022-11-11T04:18:35;18.38;;;11.30;;
55435;SDS011;41307;53.142;6.430;2022-11-11T04:21:25;22.05;;;17.67;;
55435;SDS011;41307;53.142;6.430;2022-11-11T04:24:16;24.30;;;10.93;;
55435;SDS011;41307;53.142;6.430;2022-11-11T04:27:21;22.25;;;12.43;;
55435;SDS011;41307;53.142;6.430;2022-11-11T04:29:50;24.67;;;18.50;;
55435;SDS011;41307;53.142;6.430;2022-11-11T04:32:22;22.38;;;17.83;;
55435;SDS011;41307;53.142;6.430;2022-11-11T04:35:10;20.52;;;12.32;;
55435;SDS011;41307;53.142;6.430;2022-11-11T04:37:49;25.67;;;12.82;;
55435;SDS011;41307;53.142;6.430;2022-11-11T04:40:37;21.70;;;12.52;;
55435;SDS011;41307;53.142;6.430;2022-11-11T04:43:21;21.15;;;12.55;;
55435;SDS011;41307;53.142;6.430;2022-11-11T04:45:47;23.85;;;12.15;;
55435;SDS011;41307;53.142;6.430;2022-11-11T04:48:13;23.90;;;13.70;;
55435;SDS011;41307;53.142;6.430;2022-11-11T04:50:44;25.38;;;13.02;;
55435;SDS011;41307;53.142;6.430;2022-11-11T04:53:13;23.17;;;17.70;;
55435;SDS011;41307;53.142;6.430;2022-11-11T04:55:42;22.30;;;12.88;;
55435;SDS011;41307;53.142;6.430;2022-11-11T04:58:32;22.77;;;13.88;;
55435;SDS011;41307;53.142;6.430;2022-11-11T05:00:59;27.10;;;13.85;;
55435;SDS011;41307;53.142;6.430;2022-11-11T05:03:27;22.85;;;14.23;;
55435;SDS011;41307;53.142;6.430;2022-11-11T05:05:57;20.98;;;12.63;;
55435;SDS011;41307;53.142;6.430;2022-11-11T05:08:46;22.77;;;12.82;;
55435;SDS011;41307;53.142;6.430;2022-11-11T05:11:32;21.00;;;13.27;;
55435;SDS011;41307;53.142;6.430;2022-11-11T05:14:06;22.10;;;14.27;;
55435;SDS011;41307;53.142;6.430;2022-11-11T05:16:54;22.02;;;12.90;;
55435;SDS011;41307;53.142;6.430;2022-11-11T05:19:39;26.40;;;20.05;;
55435;SDS011;41307;53.142;6.430;2022-11-11T05:27:55;23.58;;;13.55;;
55435;SDS011;41307;53.142;6.430;2022-11-11T05:30:24;26.58;;;21.17;;
55435;SDS011;41307;53.142;6.430;2022-11-11T05:32:50;22.67;;;13.55;;
55435;SDS011;41307;53.142;6.430;2022-11-11T05:35:21;24.83;;;14.02;;
55435;SDS011;41307;53.142;6.430;2022-11-11T05:37:53;22.65;;;13.43;;
55435;SDS011;41307;53.142;6.430;2022-11-11T05:40:37;23.60;;;12.73;;
55435;SDS011;41307;53.142;6.430;2022-11-11T05:43:05;24.10;;;13.25;;
55435;SDS011;41307;53.142;6.430;2022-11-11T05:45:36;26.58;;;13.50;;
55435;SDS011;41307;53.142;6.430;2022-11-11T05:48:04;28.38;;;14.93;;
55435;SDS011;41307;53.142;6.430;2022-11-11T05:50:30;26.83;;;21.08;;
55435;SDS011;41307;53.142;6.430;2022-11-11T05:53:01;29.17;;;21.08;;
55435;SDS011;41307;53.142;6.430;2022-11-11T05:55:26;23.80;;;12.90;;
55435;SDS011;41307;53.142;6.430;2022-11-11T05:57:55;27.52;;;13.93;;
55435;SDS011;41307;53.142;6.430;2022-11-11T06:00:21;24.88;;;13.85;;
55435;SDS011;41307;53.142;6.430;2022-11-11T06:02:49;21.20;;;13.13;;
55435;SDS011;41307;53.142;6.430;2022-11-11T06:05:15;25.52;;;13.45;;
55435;SDS011;41307;53.142;6.430;2022-11-11T06:07:41;26.00;;;19.70;;
55435;SDS011;41307;53.142;6.430;2022-11-11T06:10:10;25.63;;;13.40;;
55435;SDS011;41307;53.142;6.430;2022-11-11T06:12:54;21.90;;;12.80;;
55435;SDS011;41307;53.142;6.430;2022-11-11T06:15:38;25.15;;;13.02;;
55435;SDS011;41307;53.142;6.430;2022-11-11T06:18:08;23.33;;;12.68;;
55435;SDS011;41307;53.142;6.430;2022-11-11T06:20:33;21.85;;;17.40;;
55435;SDS011;41307;53.142;6.430;2022-11-11T06:23:02;26.70;;;13.88;;
55435;SDS011;41307;53.142;6.430;2022-11-11T06:25:30;23.25;;;12.38;;
55435;SDS011;41307;53.142;6.430;2022-11-11T06:28:18;25.00;;;18.80;;
55435;SDS011;41307;53.142;6.430;2022-11-11T06:30:47;29.25;;;14.23;;
55435;SDS011;41307;53.142;6.430;2022-11-11T06:33:18;27.60;;;20.02;;
55435;SDS011;41307;53.142;6.430;2022-11-11T06:35:45;28.40;;;16.48;;
55435;SDS011;41307;53.142;6.430;2022-11-11T06:38:19;22.75;;;13.57;;
55435;SDS011;41307;53.142;6.430;2022-11-11T06:40:50;22.95;;;14.40;;
55435;SDS011;41307;53.142;6.430;2022-11-11T06:43:16;22.88;;;14.05;;
55435;SDS011;41307;53.142;6.430;2022-11-11T06:45:50;28.35;;;21.10;;
55435;SDS011;41307;53.142;6.430;2022-11-11T06:48:17;27.80;;;20.40;;
55435;SDS011;41307;53.142;6.430;2022-11-11T06:50:43;26.52;;;14.35;;
55435;SDS011;41307;53.142;6.430;2022-11-11T06:53:18;25.02;;;15.65;;
55435;SDS011;41307;53.142;6.430;2022-11-11T06:55:56;29.00;;;13.85;;
55435;SDS011;41307;53.142;6.430;2022-11-11T06:58:30;25.95;;;15.55;;
55435;SDS011;41307;53.142;6.430;2022-11-11T07:01:21;30.80;;;22.55;;
55435;SDS011;41307;53.142;6.430;2022-11-11T07:03:48;24.30;;;13.60;;
55435;SDS011;41307;53.142;6.430;2022-11-11T07:06:39;26.75;;;13.18;;
55435;SDS011;41307;53.142;6.430;2022-11-11T07:29:17;28.30;;;15.00;;
55435;SDS011;41307;53.142;6.430;2022-11-11T07:32:04;26.58;;;20.73;;
55435;SDS011;41307;53.142;6.430;2022-11-11T07:34:53;27.40;;;22.05;;
55435;SDS011;41307;53.142;6.430;2022-11-11T07:40:43;27.63;;;14.55;;
55435;SDS011;41307;53.142;6.430;2022-11-11T07:43:08;29.30;;;16.48;;
55435;SDS011;41307;53.142;6.430;2022-11-11T08:00:53;25.10;;;14.38;;
55435;SDS011;41307;53.142;6.430;2022-11-11T08:03:22;31.92;;;22.05;;
55435;SDS011;41307;53.142;6.430;2022-11-11T08:09:24;20.52;;;13.25;;
55435;SDS011;41307;53.142;6.430;2022-11-11T08:15:34;26.02;;;14.50;;
55435;SDS011;41307;53.142;6.430;2022-11-11T08:18:23;24.92;;;12.73;;
55435;SDS011;41307;53.142;6.430;2022-11-11T08:21:03;26.02;;;18.73;;
55435;SDS011;41307;53.142;6.430;2022-11-11T08:23:35;20.17;;;12.68;;
55435;SDS011;41307;53.142;6.430;2022-11-11T08:26:32;24.13;;;12.50;;
55435;SDS011;41307;53.142;6.430;2022-11-11T08:28:58;26.13;;;19.08;;
55435;SDS011;41307;53.142;6.430;2022-11-11T08:31:26;26.50;;;18.98;;
55435;SDS011;41307;53.142;6.430;2022-11-11T08:34:01;25.60;;;12.73;;
55435;SDS011;41307;53.142;6.430;2022-11-11T08:36:51;24.60;;;12.57;;
55435;SDS011;41307;53.142;6.430;2022-11-11T08:39:17;28.90;;;19.25;;
55435;SDS011;41307;53.142;6.430;2022-11-11T08:44:39;24.08;;;12.25;;
55435;SDS011;41307;53.142;6.430;2022-11-11T08:47:25;23.65;;;12.50;;
55435;SDS011;41307;53.142;6.430;2022-11-11T08:49:55;18.15;;;11.50;;
55435;SDS011;41307;53.142;6.430;2022-11-11T08:52:35;22.73;;;12.27;;
55435;SDS011;41307;53.142;6.430;2022-11-11T08:55:26;22.33;;;12.68;;
55435;SDS011;41307;53.142;6.430;2022-11-11T09:00:56;23.67;;;17.70;;
55435;SDS011;41307;53.142;6.430;2022-11-11T09:13:30;18.75;;;12.10;;
55435;SDS011;41307;53.142;6.430;2022-11-11T09:15:58;25.02;;;17.38;;
55435;SDS011;41307;53.142;6.430;2022-11-11T09:24:49;19.90;;;11.93;;
55435;SDS011;41307;53.142;6.430;2022-11-11T09:27:36;22.63;;;12.13;;
55435;SDS011;41307;53.142;6.430;2022-11-11T09:30:06;21.27;;;11.48;;
55435;SDS011;41307;53.142;6.430;2022-11-11T09:32:38;21.48;;;16.55;;
55435;SDS011;41307;53.142;6.430;2022-11-11T09:42:41;24.98;;;17.83;;
55435;SDS011;41307;53.142;6.430;2022-11-11T09:50:26;19.75;;;12.25;;
55435;SDS011;41307;53.142;6.430;2022-11-11T09:53:09;21.63;;;16.67;;
55435;SDS011;41307;53.142;6.430;2022-11-11T09:55:47;20.30;;;13.05;;
55435;SDS011;41307;53.142;6.430;2022-11-11T10:14:32;18.60;;;11.02;;
55435;SDS011;41307;53.142;6.430;2022-11-11T10:20:27;19.27;;;10.70;;
55435;SDS011;41307;53.142;6.430;2022-11-11T10:25:55;19.77;;;11.67;;
55435;SDS011;41307;53.142;6.430;2022-11-11T10:28:34;21.38;;;11.15;;
55435;SDS011;41307;53.142;6.430;2022-11-11T10:31:14;22.48;;;16.45;;
55435;SDS011;41307;53.142;6.430;2022-11-11T10:33:54;17.77;;;10.23;;
55435;SDS011;41307;53.142;6.430;2022-11-11T11:02:40;18.50;;;11.27;;
55435;SDS011;41307;53.142;6.430;2022-11-11T11:08:18;17.58;;;11.63;;
55435;SDS011;41307;53.142;6.430;2022-11-11T11:10:57;17.92;;;10.13;;
55435;SDS011;41307;53.142;6.430;2022-11-11T11:16:13;18.65;;;12.30;;
55435;SDS011;41307;53.142;6.430;2022-11-11T11:21:55;20.02;;;15.70;;
55435;SDS011;41307;53.142;6.430;2022-11-11T11:28:35;19.38;;;15.35;;
55435;SDS011;41307;53.142;6.430;2022-11-11T12:30:29;14.43;;;9.27;;
55435;SDS011;41307;53.142;6.430;2022-11-11T12:36:05;19.58;;;15.27;;
55435;SDS011;41307;53.142;6.430;2022-11-11T13:28:39;16.77;;;10.18;;
55435;SDS011;41307;53.142;6.430;2022-11-11T13:33:52;20.30;;;14.95;;
55435;SDS011;41307;53.142;6.430;2022-11-11T13:36:31;21.60;;;10.55;;
55435;SDS011;41307;53.142;6.430;2022-11-11T13:39:17;18.10;;;15.35;;
55435;SDS011;41307;53.142;6.430;2022-11-11T13:41:52;18.63;;;14.98;;
55435;SDS011;41307;53.142;6.430;2022-11-11T13:44:34;15.63;;;9.48;;
55435;SDS011;41307;53.142;6.430;2022-11-11T13:47:11;17.27;;;14.07;;
55435;SDS011;41307;53.142;6.430;2022-11-11T13:49:45;17.63;;;10.82;;
55435;SDS011;41307;53.142;6.430;2022-11-11T13:52:43;18.52;;;10.23;;
55435;SDS011;41307;53.142;6.430;2022-11-11T13:55:38;16.10;;;9.55;;
55435;SDS011;41307;53.142;6.430;2022-11-11T13:58:16;15.65;;;13.32;;
55435;SDS011;41307;53.142;6.430;2022-11-11T14:01:12;15.30;;;9.68;;
55435;SDS011;41307;53.142;6.430;2022-11-11T14:14:45;16.88;;;13.18;;
55435;SDS011;41307;53.142;6.430;2022-11-11T14:17:45;13.98;;;9.48;;
55435;SDS011;41307;53.142;6.430;2022-11-11T14:37:34;16.95;;;10.13;;
55435;SDS011;41307;53.142;6.430;2022-11-11T14:42:19;16.60;;;10.18;;
55435;SDS011;41307;53.142;6.430;2022-11-11T14:49:47;16.50;;;9.88;;
55435;SDS011;41307;53.142;6.430;2022-11-11T14:52:44;16.75;;;9.90;;
55435;SDS011;41307;53.142;6.430;2022-11-11T15:04:18;19.60;;;14.95;;
55435;SDS011;41307;53.142;6.430;2022-11-11T15:06:45;19.50;;;15.25;;
55435;SDS011;41307;53.142;6.430;2022-11-11T15:18:53;16.73;;;10.13;;
55435;SDS011;41307;53.142;6.430;2022-11-11T15:28:15;17.58;;;14.23;;
55435;SDS011;41307;53.142;6.430;2022-11-11T15:39:45;17.00;;;14.02;;
55435;SDS011;41307;53.142;6.430;2022-11-11T15:44:55;15.48;;;9.55;;
55435;SDS011;41307;53.142;6.430;2022-11-11T15:47:30;18.48;;;9.85;;
55435;SDS011;41307;53.142;6.430;2022-11-11T15:50:15;14.50;;;9.13;;
55435;SDS011;41307;53.142;6.430;2022-11-11T15:52:54;17.20;;;14.00;;
55435;SDS011;41307;53.142;6.430;2022-11-11T15:55:22;15.50;;;8.82;;
55435;SDS011;41307;53.142;6.430;2022-11-11T15:57:50;13.68;;;8.48;;
55435;SDS011;41307;53.142;6.430;2022-11-11T16:02:51;17.90;;;15.13;;
55435;SDS011;41307;53.142;6.430;2022-11-11T16:05:20;17.83;;;15.25;;
55435;SDS011;41307;53.142;6.430;2022-11-11T16:07:48;17.20;;;10.45;;
55435;SDS011;41307;53.142;6.430;2022-11-11T16:10:19;17.42;;;10.32;;
55435;SDS011;41307;53.142;6.430;2022-11-11T16:13:02;17.85;;;10.88;;
55435;SDS011;41307;53.142;6.430;2022-11-11T16:18:31;20.00;;;15.90;;
55435;SDS011;41307;53.142;6.430;2022-11-11T16:21:08;21.63;;;11.40;;
55435;SDS011;41307;53.142;6.430;2022-11-11T16:23:56;17.45;;;10.40;;
55435;SDS011;41307;53.142;6.430;2022-11-11T16:26:50;18.23;;;11.15;;
55435;SDS011;41307;53.142;6.430;2022-11-11T16:29:26;17.88;;;11.90;;
55435;SDS011;41307;53.142;6.430;2022-11-11T16:31:58;22.20;;;12.15;;
55435;SDS011;41307;53.142;6.430;2022-11-11T16:34:36;19.48;;;11.15;;
55435;SDS011;41307;53.142;6.430;2022-11-11T16:37:09;22.60;;;17.20;;
55435;SDS011;41307;53.142;6.430;2022-11-11T16:39:37;19.80;;;12.48;;
55435;SDS011;41307;53.142;6.430;2022-11-11T16:50:15;19.63;;;11.80;;
55435;SDS011;41307;53.142;6.430;2022-11-11T16:52:55;20.27;;;12.05;;
55435;SDS011;41307;53.142;6.430;2022-11-11T16:55:25;24.85;;;18.30;;
55435;SDS011;41307;53.142;6.430;2022-11-11T16:58:19;24.27;;;13.13;;
55435;SDS011;41307;53.142;6.430;2022-11-11T17:00:46;21.90;;;12.30;;
55435;SDS011;41307;53.142;6.430;2022-11-11T17:03:17;23.67;;;18.10;;
55435;SDS011;41307;53.142;6.430;2022-11-11T17:11:06;22.50;;;12.88;;
55435;SDS011;41307;53.142;6.430;2022-11-11T17:13:55;23.73;;;19.05;;
55435;SDS011;41307;53.142;6.430;2022-11-11T17:16:24;25.77;;;13.80;;
55435;SDS011;41307;53.142;6.430;2022-11-11T17:18:54;22.38;;;12.45;;
55435;SDS011;41307;53.142;6.430;2022-11-11T17:21:24;21.38;;;12.57;;
55435;SDS011;41307;53.142;6.430;2022-11-11T17:23:55;22.50;;;12.57;;
55435;SDS011;41307;53.142;6.430;2022-11-11T17:26:23;28.35;;;19.35;;
55435;SDS011;41307;53.142;6.430;2022-11-11T17:28:49;25.50;;;13.73;;
55435;SDS011;41307;53.142;6.430;2022-11-11T17:31:17;28.25;;;20.45;;
55435;SDS011;41307;53.142;6.430;2022-11-11T17:33:43;22.60;;;14.02;;
55435;SDS011;41307;53.142;6.430;2022-11-11T17:36:09;26.92;;;19.55;;
55435;SDS011;41307;53.142;6.430;2022-11-11T17:38:38;25.88;;;12.80;;
55435;SDS011;41307;53.142;6.430;2022-11-11T17:41:03;27.77;;;13.88;;
55435;SDS011;41307;53.142;6.430;2022-11-11T17:43:33;25.33;;;20.10;;
55435;SDS011;41307;53.142;6.430;2022-11-11T17:46:03;21.80;;;12.70;;
55435;SDS011;41307;53.142;6.430;2022-11-11T17:48:30;25.95;;;13.85;;
55435;SDS011;41307;53.142;6.430;2022-11-11T17:51:01;22.65;;;13.27;;
55435;SDS011;41307;53.142;6.430;2022-11-11T17:53:32;25.85;;;19.38;;
55435;SDS011;41307;53.142;6.430;2022-11-11T17:56:03;23.30;;;12.73;;
55435;SDS011;41307;53.142;6.430;2022-11-11T17:58:36;21.70;;;11.88;;
55435;SDS011;41307;53.142;6.430;2022-11-11T18:01:06;23.10;;;17.70;;
55435;SDS011;41307;53.142;6.430;2022-11-11T18:04:04;29.70;;;16.20;;
55435;SDS011;41307;53.142;6.430;2022-11-11T18:06:31;23.40;;;17.35;;
55435;SDS011;41307;53.142;6.430;2022-11-11T18:09:00;19.88;;;11.07;;
55435;SDS011;41307;53.142;6.430;2022-11-11T18:11:29;24.77;;;17.23;;
55435;SDS011;41307;53.142;6.430;2022-11-11T18:13:58;23.02;;;11.25;;
55435;SDS011;41307;53.142;6.430;2022-11-11T18:16:29;18.52;;;9.98;;
55435;SDS011;41307;53.142;6.430;2022-11-11T18:19:02;18.17;;;10.27;;
55435;SDS011;41307;53.142;6.430;2022-11-11T18:21:29;19.20;;;10.20;;
55435;SDS011;41307;53.142;6.430;2022-11-11T18:23:58;20.58;;;14.27;;
55435;SDS011;41307;53.142;6.430;2022-11-11T18:26:24;23.25;;;13.23;;
55435;SDS011;41307;53.142;6.430;2022-11-11T18:31:56;17.15;;;10.32;;
55435;SDS011;41307;53.142;6.430;2022-11-11T18:34:48;18.90;;;9.13;;
55435;SDS011;41307;53.142;6.430;2022-11-11T18:37:25;19.83;;;10.07;;
55435;SDS011;41307;53.142;6.430;2022-11-11T18:39:51;19.33;;;9.68;;
55435;SDS011;41307;53.142;6.430;2022-11-11T18:45:24;16.30;;;8.43;;
55435;SDS011;41307;53.142;6.430;2022-11-11T18:48:12;14.43;;;8.23;;
55435;SDS011;41307;53.142;6.430;2022-11-11T18:54:05;15.40;;;8.52;;
55435;SDS011;41307;53.142;6.430;2022-11-11T18:56:33;15.68;;;8.77;;
55435;SDS011;41307;53.142;6.430;2022-11-11T18:59:06;15.70;;;8.65;;
55435;SDS011;41307;53.142;6.430;2022-11-11T19:01:44;13.65;;;7.25;;
55435;SDS011;41307;53.142;6.430;2022-11-11T19:04:12;15.05;;;7.45;;
55435;SDS011;41307;53.142;6.430;2022-11-11T19:09:55;15.18;;;8.15;;
55435;SDS011;41307;53.142;6.430;2022-11-11T19:12:23;12.00;;;7.55;;
55435;SDS011;41307;53.142;6.430;2022-11-11T19:14:54;13.32;;;7.38;;
55435;SDS011;41307;53.142;6.430;2022-11-11T19:17:28;15.93;;;8.52;;
55435;SDS011;41307;53.142;6.430;2022-11-11T19:19:57;13.90;;;7.57;;
55435;SDS011;41307;53.142;6.430;2022-11-11T19:22:25;17.58;;;12.18;;
55435;SDS011;41307;53.142;6.430;2022-11-11T19:24:54;15.85;;;8.07;;
55435;SDS011;41307;53.142;6.430;2022-11-11T19:30:34;13.88;;;7.57;;
55435;SDS011;41307;53.142;6.430;2022-11-11T19:33:17;15.65;;;8.77;;
55435;SDS011;41307;53.142;6.430;2022-11-11T19:35:53;15.35;;;8.30;;
55435;SDS011;41307;53.142;6.430;2022-11-11T19:38:23;18.85;;;13.40;;
55435;SDS011;41307;53.142;6.430;2022-11-11T19:40:49;15.88;;;7.93;;
55435;SDS011;41307;53.142;6.430;2022-11-11T19:43:15;13.50;;;7.20;;
55435;SDS011;41307;53.142;6.430;2022-11-11T19:45:44;13.38;;;7.90;;
55435;SDS011;41307;53.142;6.430;2022-11-11T19:48:12;14.30;;;8.05;;
55435;SDS011;41307;53.142;6.430;2022-11-11T19:50:38;16.25;;;8.48;;
55435;SDS011;41307;53.142;6.430;2022-11-11T19:53:11;14.43;;;8.20;;
55435;SDS011;41307;53.142;6.430;2022-11-11T19:55:43;16.23;;;8.80;;
55435;SDS011;41307;53.142;6.430;2022-11-11T19:58:29;15.80;;;9.32;;
55435;SDS011;41307;53.142;6.430;2022-11-11T20:00:56;14.23;;;8.35;;
55435;SDS011;41307;53.142;6.430;2022-11-11T20:03:24;18.13;;;8.45;;
55435;SDS011;41307;53.142;6.430;2022-11-11T20:05:55;17.27;;;8.45;;
55435;SDS011;41307;53.142;6.430;2022-11-11T20:08:24;17.63;;;8.98;;
55435;SDS011;41307;53.142;6.430;2022-11-11T20:10:55;20.17;;;13.88;;
55435;SDS011;41307;53.142;6.430;2022-11-11T20:13:39;14.02;;;8.45;;
55435;SDS011;41307;53.142;6.430;2022-11-11T20:16:05;18.30;;;9.30;;
55435;SDS011;41307;53.142;6.430;2022-11-11T20:18:31;17.45;;;10.00;;
55435;SDS011;41307;53.142;6.430;2022-11-11T20:21:01;16.15;;;8.80;;
55435;SDS011;41307;53.142;6.430;2022-11-11T20:23:28;14.27;;;8.07;;
55435;SDS011;41307;53.142;6.430;2022-11-11T20:26:02;14.02;;;7.47;;
55435;SDS011;41307;53.142;6.430;2022-11-11T20:28:33;13.00;;;7.22;;
55435;SDS011;41307;53.142;6.430;2022-11-11T20:33:54;12.95;;;7.13;;
55435;SDS011;41307;53.142;6.430;2022-11-11T20:36:20;17.27;;;7.50;;
55435;SDS011;41307;53.142;6.430;2022-11-11T20:38:50;12.35;;;6.70;;
55435;SDS011;41307;53.142;6.430;2022-11-11T20:41:16;13.68;;;7.07;;
55435;SDS011;41307;53.142;6.430;2022-11-11T20:43:46;14.38;;;8.30;;
55435;SDS011;41307;53.142;6.430;2022-11-11T20:46:13;13.23;;;7.05;;
55435;SDS011;41307;53.142;6.430;2022-11-11T20:48:41;12.20;;;7.18;;
55435;SDS011;41307;53.142;6.430;2022-11-11T20:51:20;13.27;;;7.85;;
55435;SDS011;41307;53.142;6.430;2022-11-11T20:53:51;16.90;;;8.30;;
55435;SDS011;41307;53.142;6.430;2022-11-11T20:56:18;14.43;;;10.80;;
55435;SDS011;41307;53.142;6.430;2022-11-11T20:58:44;14.48;;;7.95;;
55435;SDS011;41307;53.142;6.430;2022-11-11T21:01:13;15.77;;;6.55;;
55435;SDS011;41307;53.142;6.430;2022-11-11T21:06:45;13.18;;;6.38;;
55435;SDS011;41307;53.142;6.430;2022-11-11T21:09:11;16.13;;;8.45;;
55435;SDS011;41307;53.142;6.430;2022-11-11T21:11:37;12.38;;;7.28;;
55435;SDS011;41307;53.142;6.430;2022-11-11T21:14:03;14.18;;;7.35;;
55435;SDS011;41307;53.142;6.430;2022-11-11T21:16:32;13.80;;;7.10;;
55435;SDS011;41307;53.142;6.430;2022-11-11T21:19:00;11.40;;;6.65;;
55435;SDS011;41307;53.142;6.430;2022-11-11T21:21:29;12.50;;;6.72;;
55435;SDS011;41307;53.142;6.430;2022-11-11T21:24:04;12.55;;;6.15;;
55435;SDS011;41307;53.142;6.430;2022-11-11T21:26:32;11.85;;;6.75;;
55435;SDS011;41307;53.142;6.430;2022-11-11T21:29:02;10.77;;;5.85;;
55435;SDS011;41307;53.142;6.430;2022-11-11T21:31:29;12.60;;;6.55;;
55435;SDS011;41307;53.142;6.430;2022-11-11T21:34:09;12.60;;;6.03;;
55435;SDS011;41307;53.142;6.430;2022-11-11T21:36:37;8.80;;;5.75;;